createdAt,value
2022-09-28T00:00:58.107Z,100.00
2022-09-28T00:02:05.076Z,100.00
2022-09-28T00:03:19.703Z,100.00
2022-09-28T00:04:41.339Z,100.00
2022-09-28T00:07:41.633Z,100.00
2022-09-28T00:08:51.441Z,100.00
2022-09-28T00:11:23.496Z,100.00
2022-09-28T00:12:30.653Z,100.00
2022-09-28T00:14:11.077Z,100.00
2022-09-28T00:15:20.405Z,100.00
2022-09-28T00:17:47.228Z,100.00
2022-09-28T00:21:43.829Z,100.00
2022-09-28T00:25:38.414Z,100.00
2022-09-28T00:27:14.640Z,100.00
2022-09-28T00:28:07.743Z,100.00
2022-09-28T00:29:33.543Z,100.00
2022-09-28T00:30:39.845Z,100.00
2022-09-28T00:31:44.990Z,100.00
2022-09-28T00:32:55.734Z,100.00
2022-09-28T00:33:56.530Z,100.00
2022-09-28T00:35:00.465Z,100.00
2022-09-28T00:36:06.522Z,100.00
2022-09-28T00:37:17.445Z,100.00
2022-09-28T00:38:32.954Z,100.00
2022-09-28T00:39:33.546Z,100.00
2022-09-28T00:40:43.679Z,100.00
2022-09-28T00:42:08.459Z,100.00
2022-09-28T00:43:33.127Z,100.00
2022-09-28T00:44:41.706Z,100.00
2022-09-28T00:47:46.114Z,100.00
2022-09-28T00:49:04.619Z,100.00
2022-09-28T00:50:14.566Z,100.00
2022-09-28T00:51:18.682Z,100.00
2022-09-28T00:52:40.663Z,100.00
2022-09-28T00:53:45.584Z,100.00
2022-09-28T00:54:52.445Z,100.00
2022-09-28T00:56:04.042Z,100.00
2022-09-28T00:57:10.762Z,100.00
2022-09-28T00:58:22.078Z,100.00
2022-09-28T00:59:55.634Z,100.00
2022-09-28T01:00:33.276Z,100.00
2022-09-28T01:01:38.864Z,100.00
2022-09-28T01:06:38.727Z,100.00
2022-09-28T01:07:45.007Z,100.00
2022-09-28T01:08:51.882Z,100.00
2022-09-28T01:09:59.787Z,100.00
2022-09-28T01:11:15.685Z,100.00
2022-09-28T01:12:19.760Z,100.00
2022-09-28T01:13:26.128Z,100.00
2022-09-28T01:14:34.584Z,100.00
2022-09-28T01:15:44.134Z,100.00
2022-09-28T01:17:02.895Z,100.00
2022-09-28T01:18:15.475Z,100.00
2022-09-28T01:19:30.937Z,100.00
2022-09-28T01:20:54.216Z,100.00
2022-09-28T01:22:09.745Z,100.00
2022-09-28T01:23:37.529Z,100.00
2022-09-28T01:24:44.454Z,100.00
2022-09-28T01:26:15.356Z,100.00
2022-09-28T01:27:38.486Z,100.00
2022-09-28T01:28:44.108Z,100.00
2022-09-28T01:30:02.712Z,100.00
2022-09-28T01:31:12.289Z,100.00
2022-09-28T01:32:28.117Z,100.00
2022-09-28T01:33:41.257Z,100.00
2022-09-28T01:35:12.890Z,100.00
2022-09-28T01:36:12.065Z,100.00
2022-09-28T01:38:56.192Z,100.00
2022-09-28T01:40:06.096Z,100.00
2022-09-28T01:42:39.914Z,100.00
2022-09-28T01:43:52.831Z,100.00
2022-09-28T01:45:10.912Z,100.00
2022-09-28T01:46:32.438Z,100.00
2022-09-28T01:50:33.560Z,100.00
2022-09-28T01:51:40.463Z,100.00
2022-09-28T01:52:53.288Z,100.00
2022-09-28T01:54:01.799Z,100.00
2022-09-28T01:55:08.746Z,100.00
2022-09-28T01:56:23.361Z,100.00
2022-09-28T01:57:38.417Z,100.00
2022-09-28T01:58:44.974Z,100.00
2022-09-28T01:59:57.014Z,100.00
2022-09-28T02:01:02.135Z,100.00
2022-09-28T02:02:10.711Z,100.00
2022-09-28T02:03:20.343Z,100.00
2022-09-28T02:04:30.290Z,100.00
2022-09-28T02:05:40.153Z,100.00
2022-09-28T02:06:49.997Z,100.00
2022-09-28T02:08:11.172Z,100.00
2022-09-28T02:09:20.980Z,100.00
2022-09-28T02:11:41.137Z,100.00
2022-09-28T02:14:21.152Z,100.00
2022-09-28T02:15:31.001Z,100.00
2022-09-28T02:16:43.743Z,100.00
2022-09-28T02:17:53.302Z,100.00
2022-09-28T02:18:57.538Z,100.00
2022-09-28T02:20:06.338Z,100.00
2022-09-28T02:21:19.560Z,100.00
2022-09-28T02:22:36.660Z,100.00
2022-09-28T02:23:58.790Z,100.00
2022-09-28T02:25:06.410Z,100.00
2022-09-28T02:26:29.679Z,100.00
2022-09-28T02:27:44.416Z,100.00
2022-09-28T02:29:03.809Z,100.00
2022-09-28T02:30:13.891Z,100.00
2022-09-28T02:31:19.689Z,100.00
2022-09-28T02:32:26.391Z,100.00
2022-09-28T02:33:37.665Z,100.00
2022-09-28T02:36:03.541Z,100.00
2022-09-28T02:37:09.048Z,100.00
2022-09-28T02:38:16.927Z,100.00
2022-09-28T02:39:37.047Z,100.00
2022-09-28T02:40:39.193Z,100.00
2022-09-28T02:41:46.370Z,100.00
2022-09-28T02:42:57.003Z,100.00
2022-09-28T02:47:21.387Z,100.00
2022-09-28T02:49:17.389Z,100.00
2022-09-28T02:50:17.145Z,100.00
2022-09-28T02:51:37.461Z,100.00
2022-09-28T02:52:53.060Z,100.00
2022-09-28T02:53:59.964Z,100.00
2022-09-28T02:55:29.244Z,100.00
2022-09-28T02:57:13.994Z,100.00
2022-09-28T02:58:26.711Z,100.00
2022-09-28T03:00:03.241Z,100.00
2022-09-28T03:00:53.549Z,100.00
2022-09-28T03:02:20.952Z,100.00
2022-09-28T03:03:30.780Z,100.00
2022-09-28T03:04:57.119Z,100.00
2022-09-28T03:06:07.319Z,100.00
2022-09-28T03:07:23.000Z,100.00
2022-09-28T03:08:38.271Z,100.00
2022-09-28T03:09:45.132Z,100.00
2022-09-28T03:10:56.980Z,100.00
2022-09-28T03:12:01.125Z,100.00
2022-09-28T03:13:06.232Z,100.00
2022-09-28T03:14:11.741Z,100.00
2022-09-28T03:15:26.034Z,100.00
2022-09-28T03:16:31.539Z,100.00
2022-09-28T03:17:35.394Z,100.00
2022-09-28T03:18:41.506Z,100.00
2022-09-28T03:19:45.420Z,100.00
2022-09-28T03:20:51.662Z,100.00
2022-09-28T03:22:02.697Z,100.00
2022-09-28T03:23:23.815Z,100.00
2022-09-28T03:24:13.836Z,100.00
2022-09-28T03:25:17.810Z,100.00
2022-09-28T03:26:23.342Z,100.00
2022-09-28T03:27:30.055Z,100.00
2022-09-28T03:28:35.603Z,100.00
2022-09-28T03:29:39.504Z,100.00
2022-09-28T03:30:43.497Z,100.00
2022-09-28T03:31:47.837Z,100.00
2022-09-28T03:32:58.823Z,100.00
2022-09-28T03:34:02.899Z,100.00
2022-09-28T03:35:10.201Z,100.00
2022-09-28T03:36:14.242Z,100.00
2022-09-28T03:37:18.239Z,100.00
2022-09-28T03:38:22.306Z,100.00
2022-09-28T03:39:26.149Z,100.00
2022-09-28T03:41:46.353Z,100.00
2022-09-28T03:42:12.643Z,100.00
2022-09-28T03:42:57.633Z,100.00
2022-09-28T03:44:03.444Z,100.00
2022-09-28T03:45:09.649Z,100.00
2022-09-28T03:46:15.351Z,100.00
2022-09-28T03:47:19.672Z,100.00
2022-09-28T03:48:31.240Z,100.00
2022-09-28T03:49:32.579Z,100.00
2022-09-28T03:50:37.577Z,100.00
2022-09-28T03:52:14.522Z,100.00
2022-09-28T03:53:25.671Z,100.00
2022-09-28T03:54:27.541Z,100.00
2022-09-28T03:55:33.390Z,100.00
2022-09-28T03:56:38.679Z,100.00
2022-09-28T03:57:51.619Z,100.00
2022-09-28T03:58:55.517Z,100.00
2022-09-28T03:59:59.424Z,100.00
2022-09-28T04:01:11.863Z,100.00
2022-09-28T04:02:16.183Z,100.00
2022-09-28T04:03:21.700Z,100.00
2022-09-28T04:04:25.587Z,100.00
2022-09-28T04:05:30.876Z,100.00
2022-09-28T04:06:36.403Z,100.00
2022-09-28T04:07:45.352Z,100.00
2022-09-28T04:09:03.490Z,100.00
2022-09-28T04:10:11.196Z,100.00
2022-09-28T04:11:52.882Z,100.00
2022-09-28T04:12:33.507Z,100.00
2022-09-28T04:13:57.618Z,100.00
2022-09-28T04:14:53.166Z,100.00
2022-09-28T04:18:41.331Z,100.00
2022-09-28T04:19:45.298Z,100.00
2022-09-28T04:21:02.628Z,100.00
2022-09-28T04:22:55.770Z,100.00
2022-09-28T04:23:16.135Z,100.00
2022-09-28T04:24:20.048Z,100.00
2022-09-28T04:25:25.234Z,100.00
2022-09-28T04:26:52.038Z,100.00
2022-09-28T04:27:40.025Z,100.00
2022-09-28T04:28:47.668Z,100.00
2022-09-28T04:29:51.515Z,100.00
2022-09-28T04:30:56.986Z,100.00
2022-09-28T04:32:02.722Z,100.00
2022-09-28T04:33:08.299Z,100.00
2022-09-28T04:34:13.831Z,100.00
2022-09-28T04:35:20.874Z,100.00
2022-09-28T04:36:26.388Z,100.00
2022-09-28T04:37:30.324Z,100.00
2022-09-28T04:38:51.947Z,100.00
2022-09-28T04:39:39.909Z,100.00
2022-09-28T04:40:43.895Z,100.00
2022-09-28T04:41:49.192Z,100.00
2022-09-28T04:42:56.387Z,100.00
2022-09-28T04:44:00.571Z,100.00
2022-09-28T04:45:04.843Z,100.00
2022-09-28T04:46:10.797Z,100.00
2022-09-28T04:47:14.930Z,100.00
2022-09-28T04:48:33.422Z,100.00
2022-09-28T04:49:25.952Z,100.00
2022-09-28T04:50:31.844Z,100.00
2022-09-28T04:51:37.165Z,100.00
2022-09-28T04:52:44.169Z,100.00
2022-09-28T04:53:56.742Z,100.00
2022-09-28T04:55:02.977Z,100.00
2022-09-28T04:57:48.124Z,100.00
2022-09-28T04:59:00.103Z,100.00
2022-09-28T05:00:19.592Z,100.00
2022-09-28T05:01:33.975Z,100.00
2022-09-28T05:02:32.152Z,100.00
2022-09-28T05:03:35.537Z,100.00
2022-09-28T05:04:45.728Z,100.00
2022-09-28T05:05:48.110Z,100.00
2022-09-28T05:06:52.115Z,100.00
2022-09-28T05:07:58.828Z,100.00
2022-09-28T05:09:02.771Z,100.00
2022-09-28T05:10:06.943Z,100.00
2022-09-28T05:11:14.250Z,100.00
2022-09-28T05:12:19.872Z,100.00
2022-09-28T05:13:26.007Z,100.00
2022-09-28T05:14:29.857Z,100.00
2022-09-28T05:15:37.381Z,100.00
2022-09-28T05:16:41.410Z,100.00
2022-09-28T05:17:52.654Z,100.00
2022-09-28T05:19:04.845Z,100.00
2022-09-28T05:21:22.832Z,100.00
2022-09-28T05:21:46.725Z,100.00
2022-09-28T05:22:28.466Z,100.00
2022-09-28T05:23:35.266Z,100.00
2022-09-28T05:24:44.388Z,100.00
2022-09-28T05:26:11.819Z,100.00
2022-09-28T05:27:50.489Z,100.00
2022-09-28T05:28:14.596Z,100.00
2022-09-28T05:29:20.240Z,100.00
2022-09-28T05:30:24.917Z,100.00
2022-09-28T05:31:30.441Z,100.00
2022-09-28T05:32:34.352Z,100.00
2022-09-28T05:33:38.368Z,100.00
2022-09-28T05:34:42.273Z,100.00
2022-09-28T05:35:52.392Z,100.00
2022-09-28T05:36:53.568Z,100.00
2022-09-28T05:37:59.290Z,100.00
2022-09-28T05:39:03.288Z,100.00
2022-09-28T05:40:17.197Z,100.00
2022-09-28T05:41:21.716Z,100.00
2022-09-28T05:42:25.668Z,100.00
2022-09-28T05:43:30.838Z,100.00
2022-09-28T05:44:36.499Z,100.00
2022-09-28T05:45:40.617Z,100.00
2022-09-28T05:46:48.962Z,100.00
2022-09-28T05:47:52.814Z,100.00
2022-09-28T05:48:58.379Z,100.00
2022-09-28T05:50:04.463Z,100.00
2022-09-28T05:51:09.713Z,100.00
2022-09-28T05:52:15.200Z,100.00
2022-09-28T05:53:20.661Z,100.00
2022-09-28T05:54:27.582Z,100.00
2022-09-28T05:55:32.417Z,100.00
2022-09-28T05:56:36.389Z,100.00
2022-09-28T05:57:41.878Z,100.00
2022-09-28T05:59:42.416Z,100.00
2022-09-28T06:00:31.452Z,100.00
2022-09-28T06:01:17.039Z,100.00
2022-09-28T06:02:39.908Z,100.00
2022-09-28T06:21:02.147Z,100.00
2022-09-28T06:22:16.526Z,100.00
2022-09-28T06:23:33.276Z,100.00
2022-09-28T06:24:29.602Z,100.00
2022-09-28T06:26:01.161Z,100.00
2022-09-28T06:26:48.088Z,100.00
2022-09-28T06:28:07.520Z,100.00
2022-09-28T06:29:21.667Z,100.00
2022-09-28T06:30:30.445Z,100.00
2022-09-28T06:31:36.162Z,100.00
2022-09-28T06:32:47.160Z,100.00
2022-09-28T06:33:57.389Z,100.00
2022-09-28T06:39:19.511Z,100.00
2022-09-28T06:39:53.998Z,100.00
2022-09-28T06:41:10.709Z,100.00
2022-09-28T06:42:12.025Z,100.00
2022-09-28T06:48:53.232Z,100.00
2022-09-28T06:54:11.162Z,100.00
2022-09-28T06:55:35.752Z,100.00
2022-09-28T06:56:33.124Z,100.00
2022-09-28T06:58:06.737Z,100.00
2022-09-28T07:00:43.204Z,100.00
2022-09-28T07:01:45.539Z,100.00
2022-09-28T07:03:07.617Z,100.00
2022-09-28T07:04:08.258Z,100.00
2022-09-28T07:05:15.341Z,100.00
2022-09-28T07:10:04.007Z,100.00
2022-09-28T07:11:08.027Z,100.00
2022-09-28T07:12:11.890Z,100.00
2022-09-28T07:13:45.070Z,100.00
2022-09-28T07:14:41.112Z,100.00
2022-09-28T07:15:29.499Z,100.00
2022-09-28T07:16:56.331Z,100.00
2022-09-28T07:17:54.385Z,100.00
2022-09-28T07:18:45.858Z,100.00
2022-09-28T07:19:51.257Z,100.00
2022-09-28T07:20:57.615Z,100.00
2022-09-28T07:22:05.464Z,100.00
2022-09-28T07:23:19.102Z,100.00
2022-09-28T07:24:16.991Z,100.00
2022-09-28T07:25:25.193Z,100.00
2022-09-28T07:27:56.971Z,100.00
2022-09-28T07:29:02.511Z,100.00
2022-09-28T07:30:07.459Z,100.00
2022-09-28T07:31:13.427Z,100.00
2022-09-28T07:32:16.905Z,100.00
2022-09-28T07:33:20.819Z,100.00
2022-09-28T07:34:24.817Z,100.00
2022-09-28T07:35:30.359Z,100.00
2022-09-28T07:36:38.309Z,100.00
2022-09-28T07:39:07.802Z,100.00
2022-09-28T07:40:13.471Z,100.00
2022-09-28T07:41:26.600Z,100.00
2022-09-28T07:42:32.163Z,100.00
2022-09-28T07:43:38.900Z,100.00
2022-09-28T07:44:41.971Z,100.00
2022-09-28T07:45:46.384Z,100.00
2022-09-28T07:46:53.390Z,100.00
2022-09-28T07:47:57.265Z,100.00
2022-09-28T07:49:04.035Z,100.00
2022-09-28T07:50:10.643Z,100.00
2022-09-28T07:51:14.584Z,100.00
2022-09-28T07:52:20.093Z,100.00
2022-09-28T07:54:50.632Z,100.00
2022-09-28T07:55:59.432Z,100.00
2022-09-28T07:57:03.287Z,100.00
2022-09-28T07:58:08.760Z,100.00
2022-09-28T07:59:12.737Z,100.00
2022-09-28T08:00:16.932Z,100.00
2022-09-28T08:01:21.001Z,100.00
2022-09-28T08:02:24.952Z,100.00
2022-09-28T08:03:30.382Z,100.00
2022-09-28T08:04:34.378Z,100.00
2022-09-28T08:11:34.608Z,100.00
2022-09-28T08:12:29.755Z,100.00
2022-09-28T08:16:58.003Z,94.62
2022-09-28T08:18:02.997Z,94.62
2022-09-28T08:19:08.856Z,97.01
2022-09-28T08:20:15.630Z,97.01
2022-09-28T08:21:31.522Z,94.72
2022-09-28T08:41:53.049Z,86.01
2022-09-28T08:43:52.603Z,85.19
2022-09-28T08:44:32.506Z,84.87
2022-09-28T08:46:02.542Z,84.87
2022-09-28T09:05:18.248Z,86.10
2022-09-28T09:06:29.317Z,86.88
2022-09-28T09:07:57.149Z,86.88
2022-09-28T09:09:24.995Z,87.21
2022-09-28T09:10:55.481Z,88.05
2022-09-28T09:12:24.672Z,88.80
2022-09-28T09:13:55.763Z,88.36
2022-09-28T09:15:08.637Z,88.36
2022-09-28T09:16:36.559Z,88.16
2022-09-28T09:17:53.580Z,88.16
2022-09-28T09:19:19.767Z,87.65
2022-09-28T09:20:43.490Z,87.65
2022-09-28T09:22:14.463Z,86.57
2022-09-28T09:23:26.650Z,85.37
2022-09-28T09:24:51.138Z,85.37
2022-09-28T09:26:00.318Z,84.67
2022-09-28T09:55:45.729Z,79.52
2022-09-28T09:57:22.267Z,79.52
2022-09-28T11:38:21.111Z,83.91
2022-09-28T11:55:43.010Z,87.17
2022-09-28T12:53:52.997Z,91.41
2022-09-28T13:21:23.246Z,91.86
2022-09-28T13:22:30.280Z,91.86
2022-09-28T13:23:47.198Z,91.29
2022-09-28T13:24:55.800Z,91.53
2022-09-28T13:26:19.269Z,91.24
2022-09-28T13:27:41.216Z,90.72
2022-09-28T13:28:51.568Z,91.41
2022-09-28T13:30:00.936Z,91.41
2022-09-28T13:31:06.462Z,90.95
2022-09-28T13:32:12.024Z,90.86
2022-09-28T13:33:19.024Z,90.86
2022-09-28T13:34:32.505Z,91.16
2022-09-28T13:35:41.982Z,91.53
2022-09-28T13:36:48.401Z,91.53
2022-09-28T14:22:33.965Z,97.33
2022-09-28T14:24:15.742Z,97.33
2022-09-28T14:25:42.281Z,97.93
2022-09-28T14:26:38.291Z,97.93
2022-09-28T14:28:04.823Z,97.46
2022-09-28T14:29:15.004Z,98.01
2022-09-28T14:30:26.992Z,98.01
2022-09-28T14:32:55.219Z,97.67
2022-09-28T14:33:09.376Z,97.93
2022-09-28T14:34:00.459Z,97.58
2022-09-28T14:35:13.488Z,97.58
2022-09-28T14:36:25.120Z,97.70
2022-09-28T14:37:37.838Z,98.21
2022-09-28T14:38:51.098Z,98.21
2022-09-28T14:39:56.789Z,97.98
2022-09-28T14:41:04.002Z,98.77
2022-09-28T14:42:18.468Z,98.75
2022-09-28T14:43:28.289Z,98.75
2022-09-28T14:44:35.332Z,99.32
2022-09-28T14:46:07.484Z,99.25
2022-09-28T14:46:54.550Z,99.44
2022-09-28T14:48:15.944Z,99.52
2022-09-28T14:49:25.985Z,99.34
2022-09-28T14:50:31.568Z,99.52
2022-09-28T14:51:51.763Z,100.00
2022-09-28T14:53:22.746Z,100.00
2022-09-28T14:54:12.899Z,99.74
2022-09-28T14:55:21.182Z,99.78
2022-09-28T14:56:32.810Z,99.78
2022-09-28T14:57:35.802Z,100.00
2022-09-28T14:58:52.926Z,100.00
2022-09-28T14:59:55.001Z,100.00
2022-09-28T15:01:07.999Z,100.00
2022-09-28T15:02:16.168Z,100.00
2022-09-28T15:03:24.687Z,100.00
2022-09-28T15:04:33.404Z,100.00
2022-09-28T15:05:42.043Z,100.00
2022-09-28T15:06:48.974Z,100.00
2022-09-28T15:07:56.220Z,100.00
2022-09-28T15:09:03.841Z,100.00
2022-09-28T15:10:30.130Z,100.00
2022-09-28T15:11:34.198Z,100.00
2022-09-28T15:12:38.269Z,100.00
2022-09-28T15:13:47.574Z,100.00
2022-09-28T15:14:55.985Z,100.00
2022-09-28T15:16:21.680Z,100.00
2022-09-28T15:17:21.065Z,100.00
2022-09-28T15:18:39.573Z,100.00
2022-09-28T15:20:09.374Z,100.00
2022-09-28T15:21:15.594Z,100.00
2022-09-28T15:22:21.291Z,100.00
2022-09-28T15:23:38.888Z,100.00
2022-09-28T15:25:02.841Z,100.00
2022-09-28T15:26:27.636Z,100.00
2022-09-28T15:27:38.882Z,100.00
2022-09-28T15:28:45.791Z,100.00
2022-09-28T15:30:03.624Z,100.00
2022-09-28T15:31:07.822Z,100.00
2022-09-28T15:32:25.507Z,100.00
2022-09-28T15:33:33.997Z,100.00
2022-09-28T15:34:43.272Z,100.00
2022-09-28T15:36:08.912Z,100.00
2022-09-28T15:37:08.683Z,100.00
2022-09-28T15:38:14.539Z,100.00
2022-09-28T15:39:24.230Z,100.00
2022-09-28T15:40:40.778Z,100.00
2022-09-28T15:42:00.037Z,100.00
2022-09-28T15:43:10.912Z,100.00
2022-09-28T15:44:25.042Z,100.00
2022-09-28T17:32:22.563Z,100.00
2022-09-28T17:33:27.868Z,100.00
2022-09-28T17:34:33.491Z,100.00
2022-09-28T17:35:39.722Z,100.00
2022-09-28T17:36:45.032Z,100.00
2022-09-28T17:37:50.875Z,100.00
2022-09-28T17:38:55.046Z,100.00
2022-09-28T17:40:04.660Z,100.00
2022-09-28T17:41:19.975Z,100.00
2022-09-28T17:43:12.061Z,100.00
2022-09-28T17:43:28.661Z,100.00
2022-09-28T17:44:34.149Z,100.00
2022-09-28T17:45:39.497Z,100.00
2022-09-28T17:46:49.328Z,100.00
2022-09-28T17:48:21.427Z,100.00
2022-09-28T17:49:12.324Z,100.00
2022-09-28T17:50:24.433Z,100.00
2022-09-28T17:51:38.465Z,100.00
2022-09-28T17:53:53.275Z,100.00
2022-09-28T17:55:00.501Z,100.00
2022-09-28T17:55:59.930Z,100.00
2022-09-28T17:56:07.936Z,100.00
2022-09-28T17:57:13.319Z,100.00
2022-09-28T17:58:23.682Z,100.00
2022-09-28T17:59:30.882Z,100.00
2022-09-28T18:00:38.194Z,100.00
2022-09-28T18:01:44.029Z,100.00
2022-09-28T18:02:56.775Z,100.00
2022-09-28T18:07:05.823Z,100.00
2022-09-28T19:19:24.145Z,100.00
2022-09-28T19:20:22.812Z,100.00
2022-09-28T19:21:28.588Z,100.00
2022-09-28T19:22:32.801Z,100.00
2022-09-28T19:23:40.387Z,100.00
2022-09-28T19:24:49.988Z,100.00
2022-09-28T19:26:03.847Z,100.00
2022-09-28T19:27:10.103Z,100.00
2022-09-28T19:28:14.227Z,100.00
2022-09-28T19:29:20.391Z,100.00
2022-09-28T19:30:30.835Z,100.00
2022-09-28T19:31:35.255Z,100.00
2022-09-28T19:32:39.283Z,100.00
2022-09-28T19:33:44.040Z,100.00
2022-09-28T19:35:41.251Z,100.00
2022-09-28T19:36:06.295Z,100.00
2022-09-28T19:37:09.013Z,100.00
2022-09-28T19:38:13.181Z,100.00
2022-09-28T19:39:24.344Z,100.00
2022-09-28T19:40:41.991Z,100.00
2022-09-28T19:41:39.287Z,100.00
2022-09-28T19:43:36.605Z,100.00
2022-09-28T19:43:57.938Z,100.00
2022-09-28T19:45:08.013Z,100.00
2022-09-28T19:46:38.516Z,100.00
2022-09-28T19:47:24.824Z,100.00
2022-09-28T19:48:31.450Z,100.00
2022-09-28T19:49:39.679Z,100.00
2022-09-28T19:50:45.425Z,100.00
2022-09-28T19:52:11.421Z,100.00
2022-09-28T19:52:58.056Z,100.00
2022-09-28T19:54:08.394Z,100.00
2022-09-28T19:55:35.593Z,100.00
2022-09-28T19:56:21.427Z,100.00
2022-09-28T21:37:59.836Z,100.00
2022-09-28T21:39:08.223Z,100.00
2022-09-28T21:40:10.674Z,100.00
2022-09-28T21:41:16.221Z,100.00
2022-09-28T21:42:25.185Z,100.00
2022-09-28T21:43:29.401Z,100.00
2022-09-28T21:44:36.245Z,100.00
2022-09-28T21:45:42.176Z,100.00
2022-09-28T21:46:46.221Z,100.00
2022-09-28T21:47:50.281Z,100.00
2022-09-28T21:48:54.729Z,100.00
2022-09-28T21:49:58.710Z,100.00
2022-09-28T21:51:05.341Z,100.00
2022-09-28T21:52:09.324Z,100.00
2022-09-28T21:53:15.630Z,100.00
2022-09-28T21:54:38.899Z,100.00
2022-09-28T21:55:44.522Z,100.00
2022-09-28T21:56:57.756Z,100.00
2022-09-28T21:58:23.914Z,100.00
2022-09-28T21:59:18.801Z,100.00
2022-09-28T22:00:24.596Z,100.00
2022-09-28T22:01:28.731Z,100.00
2022-09-28T22:02:32.904Z,100.00
2022-09-28T22:04:01.829Z,100.00
2022-09-28T22:04:45.848Z,100.00
2022-09-28T22:05:51.467Z,100.00
2022-09-28T22:06:55.434Z,100.00
2022-09-28T22:08:01.314Z,100.00
2022-09-28T22:09:06.392Z,100.00
2022-09-28T22:10:14.918Z,100.00
2022-09-28T22:11:27.212Z,100.00
2022-09-28T22:12:32.920Z,100.00
2022-09-28T22:13:44.822Z,100.00
2022-09-28T22:14:51.879Z,100.00
2022-09-28T22:15:57.057Z,100.00
2022-09-28T22:17:12.283Z,100.00
2022-09-28T22:18:06.976Z,100.00
2022-09-28T22:19:11.017Z,100.00
2022-09-28T22:20:17.537Z,100.00
2022-09-28T22:21:23.962Z,100.00
2022-09-28T22:22:39.579Z,100.00
2022-09-28T22:23:41.628Z,100.00
2022-09-28T22:24:41.181Z,100.00
2022-09-28T22:25:45.314Z,100.00
2022-09-28T22:26:52.389Z,100.00
2022-09-28T22:27:59.969Z,100.00
2022-09-28T22:29:07.038Z,100.00
2022-09-28T22:30:13.775Z,100.00
2022-09-28T22:31:20.311Z,100.00
2022-09-28T22:32:29.043Z,100.00
2022-09-28T22:33:34.752Z,100.00
2022-09-28T22:34:43.044Z,100.00
2022-09-28T22:35:46.289Z,100.00
2022-09-28T22:36:50.412Z,100.00
2022-09-28T22:37:55.916Z,100.00
2022-09-28T22:39:00.667Z,100.00
2022-09-28T22:40:06.871Z,100.00
2022-09-28T22:41:14.596Z,100.00
2022-09-28T22:42:22.500Z,100.00
2022-09-28T22:43:28.151Z,100.00
2022-09-28T22:44:33.831Z,100.00
2022-09-28T22:45:37.962Z,100.00
2022-09-28T22:46:42.098Z,100.00
2022-09-28T22:47:46.499Z,100.00
2022-09-28T22:49:12.766Z,100.00
2022-09-28T22:50:02.178Z,100.00
2022-09-28T22:51:07.545Z,100.00
2022-09-28T22:52:18.035Z,100.00
2022-09-28T22:53:20.848Z,100.00
2022-09-28T22:54:28.072Z,100.00
2022-09-28T22:55:44.510Z,100.00
2022-09-28T22:56:45.048Z,100.00
2022-09-28T22:57:49.638Z,100.00
2022-09-28T22:58:57.593Z,100.00
2022-09-28T23:00:04.872Z,100.00
2022-09-28T23:01:14.780Z,100.00
2022-09-28T23:02:18.847Z,100.00
2022-09-28T23:03:24.338Z,100.00
2022-09-28T23:04:28.405Z,100.00
2022-09-28T23:05:32.719Z,100.00
2022-09-28T23:06:36.986Z,100.00
2022-09-28T23:07:41.106Z,100.00
2022-09-28T23:08:47.786Z,100.00
2022-09-28T23:09:53.464Z,100.00
2022-09-28T23:10:57.536Z,100.00
2022-09-28T23:12:01.803Z,100.00
2022-09-28T23:13:05.914Z,100.00
2022-09-28T23:14:11.958Z,100.00
2022-09-28T23:15:20.120Z,100.00
2022-09-28T23:16:27.737Z,100.00
2022-09-28T23:17:38.077Z,100.00
2022-09-28T23:18:41.185Z,100.00
2022-09-28T23:19:48.384Z,100.00
2022-09-28T23:21:01.056Z,100.00
2022-09-28T23:22:08.170Z,100.00
2022-09-28T23:23:13.539Z,100.00
2022-09-28T23:24:29.829Z,100.00
2022-09-28T23:25:34.239Z,100.00
2022-09-28T23:26:36.045Z,100.00
2022-09-28T23:27:43.470Z,100.00
2022-09-28T23:28:53.229Z,100.00
2022-09-28T23:29:54.994Z,100.00
2022-09-28T23:31:09.098Z,100.00
2022-09-28T23:32:15.425Z,100.00
2022-09-28T23:33:23.684Z,100.00
2022-09-28T23:34:36.517Z,100.00
2022-09-28T23:35:37.276Z,100.00
2022-09-28T23:36:41.407Z,100.00
2022-09-28T23:38:54.353Z,100.00
2022-09-28T23:39:26.104Z,100.00
2022-09-28T23:40:00.156Z,100.00
2022-09-28T23:41:11.100Z,100.00
2022-09-28T23:42:15.017Z,100.00
2022-09-28T23:43:23.137Z,100.00
2022-09-28T23:44:33.067Z,100.00
2022-09-28T23:45:36.902Z,100.00
2022-09-28T23:46:44.327Z,100.00
2022-09-28T23:48:17.005Z,100.00
2022-09-28T23:49:02.539Z,100.00
2022-09-28T23:50:08.948Z,100.00
2022-09-28T23:51:16.594Z,100.00
2022-09-28T23:52:27.607Z,100.00
2022-09-28T23:53:29.858Z,100.00
2022-09-28T23:54:33.903Z,100.00
2022-09-28T23:55:38.149Z,100.00
2022-09-28T23:56:42.225Z,100.00
2022-09-28T23:57:46.958Z,100.00
2022-09-28T23:59:42.389Z,100.00
